sensor_id;sensor_type;location;lat;lon;timestamp;P1;durP1;ratioP1;P2;durP2;ratioP2
77146;SDS011;66121;52.584;9.694;2023-11-19T00:00:18;6.20;;;4.60;;
77146;SDS011;66121;52.584;9.694;2023-11-19T00:02:43;10.27;;;6.78;;
77146;SDS011;66121;52.584;9.694;2023-11-19T00:05:09;18.05;;;12.10;;
77146;SDS011;66121;52.584;9.694;2023-11-19T00:07:36;6.20;;;4.13;;
77146;SDS011;66121;52.584;9.694;2023-11-19T00:10:02;4.55;;;3.33;;
77146;SDS011;66121;52.584;9.694;2023-11-19T00:12:31;8.00;;;5.45;;
77146;SDS011;66121;52.584;9.694;2023-11-19T00:14:57;10.05;;;6.50;;
77146;SDS011;66121;52.584;9.694;2023-11-19T00:17:22;13.70;;;8.67;;
77146;SDS011;66121;52.584;9.694;2023-11-19T00:19:47;11.13;;;5.93;;
77146;SDS011;66121;52.584;9.694;2023-11-19T00:22:14;6.47;;;4.47;;
77146;SDS011;66121;52.584;9.694;2023-11-19T00:24:39;6.27;;;4.43;;
77146;SDS011;66121;52.584;9.694;2023-11-19T00:27:04;9.23;;;6.30;;
77146;SDS011;66121;52.584;9.694;2023-11-19T00:29:30;7.87;;;5.50;;
77146;SDS011;66121;52.584;9.694;2023-11-19T00:31:55;7.40;;;4.70;;
77146;SDS011;66121;52.584;9.694;2023-11-19T00:34:21;8.23;;;4.40;;
77146;SDS011;66121;52.584;9.694;2023-11-19T00:36:47;9.10;;;5.13;;
77146;SDS011;66121;52.584;9.694;2023-11-19T00:39:13;6.35;;;4.32;;
77146;SDS011;66121;52.584;9.694;2023-11-19T00:41:40;6.95;;;4.03;;
77146;SDS011;66121;52.584;9.694;2023-11-19T00:44:05;6.90;;;4.78;;
77146;SDS011;66121;52.584;9.694;2023-11-19T00:46:30;8.13;;;5.57;;
77146;SDS011;66121;52.584;9.694;2023-11-19T00:48:57;7.07;;;4.05;;
77146;SDS011;66121;52.584;9.694;2023-11-19T00:51:24;6.50;;;4.05;;
77146;SDS011;66121;52.584;9.694;2023-11-19T00:53:51;5.70;;;4.15;;
77146;SDS011;66121;52.584;9.694;2023-11-19T00:56:17;5.68;;;4.00;;
77146;SDS011;66121;52.584;9.694;2023-11-19T00:58:44;6.15;;;4.35;;
77146;SDS011;66121;52.584;9.694;2023-11-19T01:01:11;7.43;;;4.28;;
77146;SDS011;66121;52.584;9.694;2023-11-19T01:03:36;7.55;;;4.07;;
77146;SDS011;66121;52.584;9.694;2023-11-19T01:06:02;8.93;;;5.00;;
77146;SDS011;66121;52.584;9.694;2023-11-19T01:08:27;6.13;;;4.10;;
77146;SDS011;66121;52.584;9.694;2023-11-19T01:10:53;6.70;;;4.15;;
77146;SDS011;66121;52.584;9.694;2023-11-19T01:13:18;6.37;;;3.93;;
77146;SDS011;66121;52.584;9.694;2023-11-19T01:15:43;5.53;;;3.63;;
77146;SDS011;66121;52.584;9.694;2023-11-19T01:18:09;5.10;;;3.50;;
77146;SDS011;66121;52.584;9.694;2023-11-19T01:20:34;7.53;;;4.53;;
77146;SDS011;66121;52.584;9.694;2023-11-19T01:22:59;5.70;;;3.78;;
77146;SDS011;66121;52.584;9.694;2023-11-19T01:25:25;7.95;;;4.00;;
77146;SDS011;66121;52.584;9.694;2023-11-19T01:27:50;7.47;;;3.97;;
77146;SDS011;66121;52.584;9.694;2023-11-19T01:30:15;5.90;;;3.90;;
77146;SDS011;66121;52.584;9.694;2023-11-19T01:32:41;6.10;;;3.20;;
77146;SDS011;66121;52.584;9.694;2023-11-19T01:35:06;4.57;;;2.90;;
77146;SDS011;66121;52.584;9.694;2023-11-19T01:37:33;4.32;;;3.00;;
77146;SDS011;66121;52.584;9.694;2023-11-19T01:39:59;7.20;;;3.13;;
77146;SDS011;66121;52.584;9.694;2023-11-19T01:42:25;4.85;;;2.60;;
77146;SDS011;66121;52.584;9.694;2023-11-19T01:44:57;3.38;;;2.30;;
77146;SDS011;66121;52.584;9.694;2023-11-19T01:47:24;8.25;;;3.45;;
77146;SDS011;66121;52.584;9.694;2023-11-19T01:49:53;4.68;;;2.70;;
77146;SDS011;66121;52.584;9.694;2023-11-19T01:52:19;4.35;;;3.03;;
77146;SDS011;66121;52.584;9.694;2023-11-19T01:54:45;4.22;;;2.33;;
77146;SDS011;66121;52.584;9.694;2023-11-19T01:57:11;4.85;;;2.67;;
77146;SDS011;66121;52.584;9.694;2023-11-19T01:59:37;4.30;;;2.70;;
77146;SDS011;66121;52.584;9.694;2023-11-19T02:02:03;4.07;;;2.65;;
77146;SDS011;66121;52.584;9.694;2023-11-19T02:04:30;3.75;;;2.28;;
77146;SDS011;66121;52.584;9.694;2023-11-19T02:06:56;3.88;;;2.22;;
77146;SDS011;66121;52.584;9.694;2023-11-19T02:09:23;4.55;;;2.50;;
77146;SDS011;66121;52.584;9.694;2023-11-19T02:11:48;4.10;;;3.00;;
77146;SDS011;66121;52.584;9.694;2023-11-19T02:14:16;3.83;;;2.30;;
77146;SDS011;66121;52.584;9.694;2023-11-19T02:16:42;4.30;;;2.80;;
77146;SDS011;66121;52.584;9.694;2023-11-19T02:19:07;5.13;;;2.70;;
77146;SDS011;66121;52.584;9.694;2023-11-19T02:21:34;3.70;;;2.35;;
77146;SDS011;66121;52.584;9.694;2023-11-19T02:24:00;4.10;;;2.40;;
77146;SDS011;66121;52.584;9.694;2023-11-19T02:26:59;5.07;;;2.70;;
77146;SDS011;66121;52.584;9.694;2023-11-19T02:29:23;5.95;;;2.30;;
77146;SDS011;66121;52.584;9.694;2023-11-19T02:31:48;3.72;;;2.40;;
77146;SDS011;66121;52.584;9.694;2023-11-19T02:34:13;3.10;;;2.10;;
77146;SDS011;66121;52.584;9.694;2023-11-19T02:36:39;3.65;;;2.50;;
77146;SDS011;66121;52.584;9.694;2023-11-19T02:39:06;3.88;;;2.40;;
77146;SDS011;66121;52.584;9.694;2023-11-19T02:41:35;4.13;;;2.30;;
77146;SDS011;66121;52.584;9.694;2023-11-19T02:44:00;3.40;;;2.20;;
77146;SDS011;66121;52.584;9.694;2023-11-19T02:46:26;3.27;;;2.30;;
77146;SDS011;66121;52.584;9.694;2023-11-19T02:48:51;3.22;;;2.25;;
77146;SDS011;66121;52.584;9.694;2023-11-19T02:51:16;2.85;;;2.05;;
77146;SDS011;66121;52.584;9.694;2023-11-19T02:53:43;2.95;;;2.03;;
77146;SDS011;66121;52.584;9.694;2023-11-19T02:56:09;6.20;;;2.10;;
77146;SDS011;66121;52.584;9.694;2023-11-19T02:58:45;2.47;;;1.77;;
77146;SDS011;66121;52.584;9.694;2023-11-19T03:01:11;3.10;;;1.90;;
77146;SDS011;66121;52.584;9.694;2023-11-19T03:03:48;2.95;;;1.85;;
77146;SDS011;66121;52.584;9.694;2023-11-19T03:06:20;2.50;;;1.58;;
77146;SDS011;66121;52.584;9.694;2023-11-19T03:08:46;2.80;;;1.80;;
77146;SDS011;66121;52.584;9.694;2023-11-19T03:11:12;4.75;;;1.95;;
77146;SDS011;66121;52.584;9.694;2023-11-19T03:13:38;2.70;;;1.73;;
77146;SDS011;66121;52.584;9.694;2023-11-19T03:16:04;3.33;;;2.00;;
77146;SDS011;66121;52.584;9.694;2023-11-19T03:18:29;2.65;;;1.92;;
77146;SDS011;66121;52.584;9.694;2023-11-19T03:20:55;2.90;;;1.88;;
77146;SDS011;66121;52.584;9.694;2023-11-19T03:23:20;3.97;;;2.20;;
77146;SDS011;66121;52.584;9.694;2023-11-19T03:25:45;3.72;;;2.08;;
77146;SDS011;66121;52.584;9.694;2023-11-19T03:28:11;4.13;;;2.60;;
77146;SDS011;66121;52.584;9.694;2023-11-19T03:30:36;4.22;;;2.40;;
77146;SDS011;66121;52.584;9.694;2023-11-19T03:33:02;3.92;;;2.60;;
77146;SDS011;66121;52.584;9.694;2023-11-19T03:35:27;5.70;;;2.60;;
77146;SDS011;66121;52.584;9.694;2023-11-19T03:37:53;5.22;;;3.13;;
77146;SDS011;66121;52.584;9.694;2023-11-19T03:40:18;5.25;;;2.67;;
77146;SDS011;66121;52.584;9.694;2023-11-19T03:42:44;5.00;;;2.72;;
77146;SDS011;66121;52.584;9.694;2023-11-19T03:45:10;5.45;;;2.50;;
77146;SDS011;66121;52.584;9.694;2023-11-19T03:47:36;4.85;;;3.00;;
77146;SDS011;66121;52.584;9.694;2023-11-19T03:50:01;5.70;;;3.35;;
77146;SDS011;66121;52.584;9.694;2023-11-19T03:52:28;6.82;;;3.25;;
77146;SDS011;66121;52.584;9.694;2023-11-19T03:54:54;8.50;;;3.55;;
77146;SDS011;66121;52.584;9.694;2023-11-19T03:57:20;6.40;;;3.22;;
77146;SDS011;66121;52.584;9.694;2023-11-19T03:59:46;6.53;;;3.50;;
77146;SDS011;66121;52.584;9.694;2023-11-19T04:02:11;8.07;;;3.97;;
77146;SDS011;66121;52.584;9.694;2023-11-19T04:04:36;7.13;;;3.90;;
77146;SDS011;66121;52.584;9.694;2023-11-19T04:07:03;8.38;;;4.50;;
77146;SDS011;66121;52.584;9.694;2023-11-19T04:09:29;7.07;;;4.15;;
77146;SDS011;66121;52.584;9.694;2023-11-19T04:11:55;9.63;;;5.00;;
77146;SDS011;66121;52.584;9.694;2023-11-19T04:14:20;8.68;;;5.18;;
77146;SDS011;66121;52.584;9.694;2023-11-19T04:16:45;11.00;;;5.30;;
77146;SDS011;66121;52.584;9.694;2023-11-19T04:19:11;14.00;;;6.43;;
77146;SDS011;66121;52.584;9.694;2023-11-19T04:21:37;15.13;;;6.88;;
77146;SDS011;66121;52.584;9.694;2023-11-19T04:24:04;14.65;;;6.32;;
77146;SDS011;66121;52.584;9.694;2023-11-19T04:26:30;18.13;;;7.72;;
77146;SDS011;66121;52.584;9.694;2023-11-19T04:28:56;17.02;;;7.25;;
77146;SDS011;66121;52.584;9.694;2023-11-19T04:31:21;13.93;;;7.38;;
77146;SDS011;66121;52.584;9.694;2023-11-19T04:33:46;17.88;;;8.32;;
77146;SDS011;66121;52.584;9.694;2023-11-19T04:36:12;19.63;;;10.63;;
77146;SDS011;66121;52.584;9.694;2023-11-19T04:38:39;23.05;;;9.80;;
77146;SDS011;66121;52.584;9.694;2023-11-19T04:41:05;17.58;;;9.80;;
77146;SDS011;66121;52.584;9.694;2023-11-19T04:43:31;24.60;;;9.80;;
77146;SDS011;66121;52.584;9.694;2023-11-19T04:45:57;24.08;;;10.82;;
77146;SDS011;66121;52.584;9.694;2023-11-19T04:48:22;24.63;;;10.43;;
77146;SDS011;66121;52.584;9.694;2023-11-19T04:50:48;23.38;;;9.50;;
77146;SDS011;66121;52.584;9.694;2023-11-19T04:53:13;21.52;;;11.05;;
77146;SDS011;66121;52.584;9.694;2023-11-19T04:55:40;25.77;;;10.95;;
77146;SDS011;66121;52.584;9.694;2023-11-19T04:58:06;24.17;;;11.43;;
77146;SDS011;66121;52.584;9.694;2023-11-19T05:00:31;26.13;;;11.07;;
77146;SDS011;66121;52.584;9.694;2023-11-19T05:02:57;17.52;;;10.35;;
77146;SDS011;66121;52.584;9.694;2023-11-19T05:05:22;25.87;;;11.90;;
77146;SDS011;66121;52.584;9.694;2023-11-19T05:07:48;24.33;;;10.90;;
77146;SDS011;66121;52.584;9.694;2023-11-19T05:10:13;21.70;;;11.10;;
77146;SDS011;66121;52.584;9.694;2023-11-19T05:12:39;21.85;;;11.50;;
77146;SDS011;66121;52.584;9.694;2023-11-19T05:15:04;24.03;;;11.43;;
77146;SDS011;66121;52.584;9.694;2023-11-19T05:17:30;18.77;;;11.68;;
77146;SDS011;66121;52.584;9.694;2023-11-19T05:19:55;21.87;;;12.33;;
77146;SDS011;66121;52.584;9.694;2023-11-19T05:22:20;26.67;;;12.30;;
77146;SDS011;66121;52.584;9.694;2023-11-19T05:24:46;22.88;;;11.48;;
77146;SDS011;66121;52.584;9.694;2023-11-19T05:27:13;24.30;;;12.07;;
77146;SDS011;66121;52.584;9.694;2023-11-19T05:29:39;22.90;;;11.57;;
77146;SDS011;66121;52.584;9.694;2023-11-19T05:32:06;28.88;;;13.25;;
77146;SDS011;66121;52.584;9.694;2023-11-19T05:34:32;24.75;;;12.10;;
77146;SDS011;66121;52.584;9.694;2023-11-19T05:36:57;20.95;;;11.10;;
77146;SDS011;66121;52.584;9.694;2023-11-19T05:39:22;24.52;;;12.65;;
77146;SDS011;66121;52.584;9.694;2023-11-19T05:41:49;25.58;;;12.48;;
77146;SDS011;66121;52.584;9.694;2023-11-19T05:44:14;27.75;;;11.88;;
77146;SDS011;66121;52.584;9.694;2023-11-19T05:46:39;24.80;;;12.13;;
77146;SDS011;66121;52.584;9.694;2023-11-19T05:49:07;23.13;;;11.80;;
77146;SDS011;66121;52.584;9.694;2023-11-19T05:51:36;22.40;;;12.48;;
77146;SDS011;66121;52.584;9.694;2023-11-19T05:54:05;27.88;;;13.57;;
77146;SDS011;66121;52.584;9.694;2023-11-19T05:56:34;25.88;;;12.75;;
77146;SDS011;66121;52.584;9.694;2023-11-19T05:59:00;23.73;;;12.23;;
77146;SDS011;66121;52.584;9.694;2023-11-19T06:01:28;25.98;;;13.20;;
77146;SDS011;66121;52.584;9.694;2023-11-19T06:03:54;33.47;;;14.05;;
77146;SDS011;66121;52.584;9.694;2023-11-19T06:06:19;24.45;;;12.75;;
77146;SDS011;66121;52.584;9.694;2023-11-19T06:08:45;29.80;;;13.63;;
77146;SDS011;66121;52.584;9.694;2023-11-19T06:11:10;25.23;;;11.68;;
77146;SDS011;66121;52.584;9.694;2023-11-19T06:13:43;21.95;;;12.30;;
77146;SDS011;66121;52.584;9.694;2023-11-19T06:16:08;21.98;;;12.50;;
77146;SDS011;66121;52.584;9.694;2023-11-19T06:18:34;24.97;;;11.97;;
77146;SDS011;66121;52.584;9.694;2023-11-19T06:20:59;24.37;;;12.00;;
77146;SDS011;66121;52.584;9.694;2023-11-19T06:23:25;21.38;;;10.82;;
77146;SDS011;66121;52.584;9.694;2023-11-19T06:25:50;26.77;;;11.47;;
77146;SDS011;66121;52.584;9.694;2023-11-19T06:28:15;19.23;;;10.07;;
77146;SDS011;66121;52.584;9.694;2023-11-19T06:30:41;22.70;;;10.65;;
77146;SDS011;66121;52.584;9.694;2023-11-19T06:33:06;25.27;;;10.48;;
77146;SDS011;66121;52.584;9.694;2023-11-19T06:35:32;22.92;;;10.07;;
77146;SDS011;66121;52.584;9.694;2023-11-19T06:38:01;22.80;;;10.27;;
77146;SDS011;66121;52.584;9.694;2023-11-19T06:40:30;21.85;;;8.63;;
77146;SDS011;66121;52.584;9.694;2023-11-19T06:42:56;28.40;;;9.55;;
77146;SDS011;66121;52.584;9.694;2023-11-19T06:45:21;18.73;;;9.50;;
77146;SDS011;66121;52.584;9.694;2023-11-19T06:47:47;23.40;;;8.73;;
77146;SDS011;66121;52.584;9.694;2023-11-19T06:50:12;20.73;;;8.57;;
77146;SDS011;66121;52.584;9.694;2023-11-19T06:52:37;15.90;;;8.05;;
77146;SDS011;66121;52.584;9.694;2023-11-19T06:55:03;21.10;;;8.35;;
77146;SDS011;66121;52.584;9.694;2023-11-19T06:57:29;21.25;;;7.78;;
77146;SDS011;66121;52.584;9.694;2023-11-19T06:59:57;20.95;;;7.70;;
77146;SDS011;66121;52.584;9.694;2023-11-19T07:02:22;15.00;;;7.57;;
77146;SDS011;66121;52.584;9.694;2023-11-19T07:04:47;20.27;;;8.20;;
77146;SDS011;66121;52.584;9.694;2023-11-19T07:07:13;15.43;;;6.90;;
77146;SDS011;66121;52.584;9.694;2023-11-19T07:09:40;17.23;;;7.57;;
77146;SDS011;66121;52.584;9.694;2023-11-19T07:12:05;28.88;;;7.60;;
77146;SDS011;66121;52.584;9.694;2023-11-19T07:14:31;19.70;;;7.45;;
77146;SDS011;66121;52.584;9.694;2023-11-19T07:16:56;20.95;;;7.07;;
77146;SDS011;66121;52.584;9.694;2023-11-19T07:19:22;22.38;;;7.05;;
77146;SDS011;66121;52.584;9.694;2023-11-19T07:21:47;31.23;;;7.20;;
77146;SDS011;66121;52.584;9.694;2023-11-19T07:24:12;22.27;;;5.90;;
77146;SDS011;66121;52.584;9.694;2023-11-19T07:26:42;24.25;;;5.95;;
77146;SDS011;66121;52.584;9.694;2023-11-19T07:29:08;24.13;;;5.63;;
77146;SDS011;66121;52.584;9.694;2023-11-19T07:31:34;24.85;;;6.10;;
77146;SDS011;66121;52.584;9.694;2023-11-19T07:33:59;17.47;;;5.23;;
77146;SDS011;66121;52.584;9.694;2023-11-19T07:36:24;20.17;;;4.53;;
77146;SDS011;66121;52.584;9.694;2023-11-19T07:38:49;24.57;;;5.83;;
77146;SDS011;66121;52.584;9.694;2023-11-19T07:41:15;23.65;;;5.13;;
77146;SDS011;66121;52.584;9.694;2023-11-19T07:43:42;20.40;;;5.13;;
77146;SDS011;66121;52.584;9.694;2023-11-19T07:46:13;22.13;;;5.15;;
77146;SDS011;66121;52.584;9.694;2023-11-19T07:48:41;20.33;;;5.10;;
77146;SDS011;66121;52.584;9.694;2023-11-19T07:51:07;24.05;;;5.55;;
77146;SDS011;66121;52.584;9.694;2023-11-19T07:53:32;16.95;;;5.75;;
77146;SDS011;66121;52.584;9.694;2023-11-19T07:55:58;22.13;;;6.15;;
77146;SDS011;66121;52.584;9.694;2023-11-19T07:58:24;25.10;;;5.05;;
77146;SDS011;66121;52.584;9.694;2023-11-19T08:00:50;20.70;;;5.30;;
77146;SDS011;66121;52.584;9.694;2023-11-19T08:03:17;21.98;;;5.10;;
77146;SDS011;66121;52.584;9.694;2023-11-19T08:05:42;37.17;;;5.97;;
77146;SDS011;66121;52.584;9.694;2023-11-19T08:08:07;24.93;;;5.23;;
77146;SDS011;66121;52.584;9.694;2023-11-19T08:10:32;23.87;;;5.77;;
77146;SDS011;66121;52.584;9.694;2023-11-19T08:12:58;21.38;;;5.60;;
77146;SDS011;66121;52.584;9.694;2023-11-19T08:15:23;19.85;;;5.47;;
77146;SDS011;66121;52.584;9.694;2023-11-19T08:17:49;23.67;;;6.13;;
77146;SDS011;66121;52.584;9.694;2023-11-19T08:20:14;22.80;;;5.20;;
77146;SDS011;66121;52.584;9.694;2023-11-19T08:22:39;22.73;;;4.82;;
77146;SDS011;66121;52.584;9.694;2023-11-19T08:25:05;18.33;;;5.05;;
77146;SDS011;66121;52.584;9.694;2023-11-19T08:27:31;24.20;;;6.57;;
77146;SDS011;66121;52.584;9.694;2023-11-19T08:29:57;21.83;;;5.43;;
77146;SDS011;66121;52.584;9.694;2023-11-19T08:32:24;19.35;;;4.60;;
77146;SDS011;66121;52.584;9.694;2023-11-19T08:34:50;24.77;;;5.05;;
77146;SDS011;66121;52.584;9.694;2023-11-19T08:37:15;16.95;;;4.68;;
77146;SDS011;66121;52.584;9.694;2023-11-19T08:39:43;23.08;;;5.07;;
77146;SDS011;66121;52.584;9.694;2023-11-19T08:42:08;19.08;;;5.72;;
77146;SDS011;66121;52.584;9.694;2023-11-19T08:44:33;35.83;;;6.57;;
77146;SDS011;66121;52.584;9.694;2023-11-19T08:46:59;22.63;;;4.93;;
77146;SDS011;66121;52.584;9.694;2023-11-19T08:49:24;28.83;;;5.07;;
77146;SDS011;66121;52.584;9.694;2023-11-19T08:51:49;25.43;;;5.77;;
77146;SDS011;66121;52.584;9.694;2023-11-19T08:54:14;26.87;;;4.57;;
77146;SDS011;66121;52.584;9.694;2023-11-19T08:56:40;27.07;;;6.57;;
77146;SDS011;66121;52.584;9.694;2023-11-19T08:59:05;22.63;;;5.57;;
77146;SDS011;66121;52.584;9.694;2023-11-19T09:01:30;26.10;;;5.43;;
77146;SDS011;66121;52.584;9.694;2023-11-19T09:03:56;25.43;;;5.17;;
77146;SDS011;66121;52.584;9.694;2023-11-19T09:06:21;28.52;;;4.35;;
77146;SDS011;66121;52.584;9.694;2023-11-19T09:08:46;24.33;;;4.60;;
77146;SDS011;66121;52.584;9.694;2023-11-19T09:11:12;25.90;;;4.72;;
77146;SDS011;66121;52.584;9.694;2023-11-19T09:13:37;31.20;;;4.93;;
77146;SDS011;66121;52.584;9.694;2023-11-19T09:16:02;29.27;;;4.97;;
77146;SDS011;66121;52.584;9.694;2023-11-19T09:18:29;23.88;;;4.82;;
77146;SDS011;66121;52.584;9.694;2023-11-19T09:20:54;26.10;;;5.45;;
77146;SDS011;66121;52.584;9.694;2023-11-19T09:23:20;27.30;;;4.97;;
77146;SDS011;66121;52.584;9.694;2023-11-19T09:25:45;31.58;;;5.38;;
77146;SDS011;66121;52.584;9.694;2023-11-19T09:28:10;25.13;;;5.73;;
77146;SDS011;66121;52.584;9.694;2023-11-19T09:30:35;26.65;;;7.22;;
77146;SDS011;66121;52.584;9.694;2023-11-19T09:33:01;29.98;;;4.53;;
77146;SDS011;66121;52.584;9.694;2023-11-19T09:35:27;26.65;;;5.43;;
77146;SDS011;66121;52.584;9.694;2023-11-19T09:37:52;24.47;;;4.90;;
77146;SDS011;66121;52.584;9.694;2023-11-19T09:40:18;25.55;;;5.13;;
77146;SDS011;66121;52.584;9.694;2023-11-19T09:42:44;21.75;;;4.97;;
77146;SDS011;66121;52.584;9.694;2023-11-19T09:45:14;21.60;;;4.38;;
77146;SDS011;66121;52.584;9.694;2023-11-19T09:47:45;21.88;;;4.72;;
77146;SDS011;66121;52.584;9.694;2023-11-19T09:50:14;27.17;;;5.20;;
77146;SDS011;66121;52.584;9.694;2023-11-19T09:52:41;24.48;;;5.47;;
77146;SDS011;66121;52.584;9.694;2023-11-19T09:55:07;16.42;;;4.57;;
77146;SDS011;66121;52.584;9.694;2023-11-19T09:57:33;25.60;;;5.80;;
77146;SDS011;66121;52.584;9.694;2023-11-19T10:00:02;25.73;;;5.70;;
77146;SDS011;66121;52.584;9.694;2023-11-19T10:02:29;22.02;;;5.07;;
77146;SDS011;66121;52.584;9.694;2023-11-19T10:04:57;18.15;;;5.40;;
77146;SDS011;66121;52.584;9.694;2023-11-19T10:07:24;28.10;;;5.53;;
77146;SDS011;66121;52.584;9.694;2023-11-19T10:09:49;21.98;;;5.40;;
77146;SDS011;66121;52.584;9.694;2023-11-19T10:12:15;22.20;;;4.50;;
77146;SDS011;66121;52.584;9.694;2023-11-19T10:14:41;29.10;;;4.40;;
77146;SDS011;66121;52.584;9.694;2023-11-19T10:17:08;23.98;;;5.00;;
77146;SDS011;66121;52.584;9.694;2023-11-19T10:19:34;27.65;;;4.85;;
77146;SDS011;66121;52.584;9.694;2023-11-19T10:22:06;23.65;;;5.55;;
77146;SDS011;66121;52.584;9.694;2023-11-19T10:24:32;25.30;;;5.10;;
77146;SDS011;66121;52.584;9.694;2023-11-19T10:26:59;19.25;;;4.57;;
77146;SDS011;66121;52.584;9.694;2023-11-19T10:29:29;24.70;;;4.65;;
77146;SDS011;66121;52.584;9.694;2023-11-19T10:31:58;32.90;;;5.07;;
77146;SDS011;66121;52.584;9.694;2023-11-19T10:34:24;12.88;;;3.83;;
77146;SDS011;66121;52.584;9.694;2023-11-19T10:36:51;24.90;;;4.63;;
77146;SDS011;66121;52.584;9.694;2023-11-19T10:39:16;28.65;;;5.10;;
77146;SDS011;66121;52.584;9.694;2023-11-19T10:41:42;22.60;;;3.90;;
77146;SDS011;66121;52.584;9.694;2023-11-19T10:44:08;28.83;;;5.47;;
77146;SDS011;66121;52.584;9.694;2023-11-19T10:46:40;13.20;;;3.53;;
77146;SDS011;66121;52.584;9.694;2023-11-19T10:49:07;23.13;;;4.53;;
77146;SDS011;66121;52.584;9.694;2023-11-19T10:51:33;24.70;;;4.28;;
77146;SDS011;66121;52.584;9.694;2023-11-19T10:54:01;24.52;;;4.57;;
77146;SDS011;66121;52.584;9.694;2023-11-19T10:56:31;23.52;;;4.63;;
77146;SDS011;66121;52.584;9.694;2023-11-19T10:58:57;23.65;;;4.30;;
77146;SDS011;66121;52.584;9.694;2023-11-19T11:01:25;25.20;;;5.00;;
77146;SDS011;66121;52.584;9.694;2023-11-19T11:03:56;27.48;;;4.05;;
77146;SDS011;66121;52.584;9.694;2023-11-19T11:06:25;22.70;;;4.63;;
77146;SDS011;66121;52.584;9.694;2023-11-19T11:08:52;23.55;;;4.47;;
77146;SDS011;66121;52.584;9.694;2023-11-19T11:11:19;29.15;;;5.47;;
77146;SDS011;66121;52.584;9.694;2023-11-19T11:13:48;15.63;;;4.38;;
77146;SDS011;66121;52.584;9.694;2023-11-19T11:16:15;24.23;;;5.30;;
77146;SDS011;66121;52.584;9.694;2023-11-19T11:18:44;28.83;;;5.00;;
77146;SDS011;66121;52.584;9.694;2023-11-19T11:21:15;20.48;;;4.35;;
77146;SDS011;66121;52.584;9.694;2023-11-19T11:35:08;37.83;;;4.97;;
77146;SDS011;66121;52.584;9.694;2023-11-19T11:37:49;23.70;;;3.88;;
77146;SDS011;66121;52.584;9.694;2023-11-19T11:40:18;25.70;;;4.28;;
77146;SDS011;66121;52.584;9.694;2023-11-19T11:42:44;25.73;;;4.40;;
77146;SDS011;66121;52.584;9.694;2023-11-19T11:45:10;27.58;;;4.28;;
77146;SDS011;66121;52.584;9.694;2023-11-19T11:50:10;23.98;;;4.47;;
77146;SDS011;66121;52.584;9.694;2023-11-19T11:55:34;23.05;;;4.65;;
77146;SDS011;66121;52.584;9.694;2023-11-19T11:58:02;24.33;;;4.93;;
77146;SDS011;66121;52.584;9.694;2023-11-19T12:00:31;24.60;;;5.07;;
77146;SDS011;66121;52.584;9.694;2023-11-19T12:03:07;22.27;;;4.53;;
77146;SDS011;66121;52.584;9.694;2023-11-19T12:05:33;24.90;;;4.85;;
77146;SDS011;66121;52.584;9.694;2023-11-19T12:08:05;17.83;;;4.20;;
77146;SDS011;66121;52.584;9.694;2023-11-19T12:10:54;22.70;;;4.65;;
77146;SDS011;66121;52.584;9.694;2023-11-19T12:13:24;18.30;;;4.35;;
77146;SDS011;66121;52.584;9.694;2023-11-19T12:18:23;26.25;;;5.78;;
77146;SDS011;66121;52.584;9.694;2023-11-19T12:20:49;26.17;;;6.50;;
77146;SDS011;66121;52.584;9.694;2023-11-19T12:23:15;20.60;;;4.53;;
77146;SDS011;66121;52.584;9.694;2023-11-19T12:25:40;20.73;;;4.50;;
77146;SDS011;66121;52.584;9.694;2023-11-19T12:28:06;25.15;;;4.50;;
77146;SDS011;66121;52.584;9.694;2023-11-19T12:30:38;24.25;;;5.60;;
77146;SDS011;66121;52.584;9.694;2023-11-19T12:33:07;24.38;;;4.90;;
77146;SDS011;66121;52.584;9.694;2023-11-19T12:35:37;20.23;;;5.00;;
77146;SDS011;66121;52.584;9.694;2023-11-19T12:38:04;31.50;;;4.85;;
77146;SDS011;66121;52.584;9.694;2023-11-19T12:40:29;26.27;;;4.63;;
77146;SDS011;66121;52.584;9.694;2023-11-19T12:42:55;23.43;;;4.80;;
77146;SDS011;66121;52.584;9.694;2023-11-19T12:45:20;30.38;;;5.25;;
77146;SDS011;66121;52.584;9.694;2023-11-19T12:47:48;23.98;;;4.97;;
77146;SDS011;66121;52.584;9.694;2023-11-19T12:50:16;25.67;;;4.50;;
77146;SDS011;66121;52.584;9.694;2023-11-19T12:52:43;16.80;;;4.00;;
77146;SDS011;66121;52.584;9.694;2023-11-19T12:55:24;24.15;;;4.70;;
77146;SDS011;66121;52.584;9.694;2023-11-19T12:57:53;18.45;;;4.10;;
77146;SDS011;66121;52.584;9.694;2023-11-19T13:00:24;16.75;;;4.07;;
77146;SDS011;66121;52.584;9.694;2023-11-19T13:02:51;18.08;;;4.45;;
77146;SDS011;66121;52.584;9.694;2023-11-19T13:08:07;24.40;;;4.72;;
77146;SDS011;66121;52.584;9.694;2023-11-19T13:13:13;28.90;;;5.75;;
77146;SDS011;66121;52.584;9.694;2023-11-19T13:15:39;24.93;;;4.83;;
77146;SDS011;66121;52.584;9.694;2023-11-19T13:18:05;24.17;;;5.05;;
77146;SDS011;66121;52.584;9.694;2023-11-19T13:20:31;12.95;;;3.72;;
77146;SDS011;66121;52.584;9.694;2023-11-19T13:23:01;22.98;;;4.78;;
77146;SDS011;66121;52.584;9.694;2023-11-19T13:25:28;21.60;;;5.75;;
77146;SDS011;66121;52.584;9.694;2023-11-19T13:27:54;21.95;;;4.75;;
77146;SDS011;66121;52.584;9.694;2023-11-19T13:30:20;28.70;;;5.10;;
77146;SDS011;66121;52.584;9.694;2023-11-19T13:32:47;27.92;;;7.00;;
77146;SDS011;66121;52.584;9.694;2023-11-19T13:35:12;24.02;;;5.07;;
77146;SDS011;66121;52.584;9.694;2023-11-19T13:37:38;18.67;;;6.68;;
77146;SDS011;66121;52.584;9.694;2023-11-19T13:40:04;24.92;;;5.53;;
77146;SDS011;66121;52.584;9.694;2023-11-19T13:42:31;18.05;;;4.47;;
77146;SDS011;66121;52.584;9.694;2023-11-19T13:44:56;21.07;;;5.87;;
77146;SDS011;66121;52.584;9.694;2023-11-19T13:47:22;25.13;;;6.80;;
77146;SDS011;66121;52.584;9.694;2023-11-19T13:49:47;18.10;;;5.25;;
77146;SDS011;66121;52.584;9.694;2023-11-19T13:52:12;17.27;;;4.85;;
77146;SDS011;66121;52.584;9.694;2023-11-19T13:54:37;22.08;;;4.82;;
77146;SDS011;66121;52.584;9.694;2023-11-19T13:57:03;22.50;;;4.77;;
77146;SDS011;66121;52.584;9.694;2023-11-19T13:59:29;26.20;;;5.97;;
77146;SDS011;66121;52.584;9.694;2023-11-19T14:01:56;18.02;;;4.55;;
77146;SDS011;66121;52.584;9.694;2023-11-19T14:04:21;23.43;;;4.90;;
77146;SDS011;66121;52.584;9.694;2023-11-19T14:06:46;23.17;;;5.17;;
77146;SDS011;66121;52.584;9.694;2023-11-19T14:09:12;22.05;;;5.30;;
77146;SDS011;66121;52.584;9.694;2023-11-19T14:11:37;22.00;;;4.05;;
77146;SDS011;66121;52.584;9.694;2023-11-19T14:14:03;28.17;;;8.23;;
77146;SDS011;66121;52.584;9.694;2023-11-19T14:16:28;22.00;;;4.53;;
77146;SDS011;66121;52.584;9.694;2023-11-19T14:18:54;28.23;;;5.07;;
77146;SDS011;66121;52.584;9.694;2023-11-19T14:21:19;20.20;;;4.43;;
77146;SDS011;66121;52.584;9.694;2023-11-19T14:23:45;33.67;;;6.13;;
77146;SDS011;66121;52.584;9.694;2023-11-19T14:26:16;23.20;;;4.63;;
77146;SDS011;66121;52.584;9.694;2023-11-19T14:28:42;19.25;;;3.83;;
77146;SDS011;66121;52.584;9.694;2023-11-19T14:31:07;23.73;;;4.70;;
77146;SDS011;66121;52.584;9.694;2023-11-19T14:33:32;22.30;;;4.53;;
77146;SDS011;66121;52.584;9.694;2023-11-19T14:36:00;25.75;;;6.75;;
77146;SDS011;66121;52.584;9.694;2023-11-19T14:38:25;19.80;;;5.07;;
77146;SDS011;66121;52.584;9.694;2023-11-19T14:40:50;26.80;;;5.57;;
77146;SDS011;66121;52.584;9.694;2023-11-19T14:43:16;29.73;;;6.00;;
77146;SDS011;66121;52.584;9.694;2023-11-19T14:45:41;21.98;;;4.63;;
77146;SDS011;66121;52.584;9.694;2023-11-19T14:48:06;25.40;;;5.83;;
77146;SDS011;66121;52.584;9.694;2023-11-19T14:50:32;23.60;;;5.97;;
77146;SDS011;66121;52.584;9.694;2023-11-19T14:52:57;31.05;;;5.88;;
77146;SDS011;66121;52.584;9.694;2023-11-19T14:55:23;23.50;;;6.50;;